createdAt,value
2023-02-06T00:01:52.968Z,8.10
2023-02-06T00:04:21.491Z,9.30
2023-02-06T00:06:50.611Z,7.60
2023-02-06T00:09:19.180Z,7.50
2023-02-06T00:11:47.747Z,8.60
2023-02-06T00:14:16.348Z,7.60
2023-02-06T00:16:44.909Z,5.20
2023-02-06T00:19:13.549Z,7.20
2023-02-06T00:21:43.020Z,8.40
2023-02-06T00:24:13.881Z,6.50
2023-02-06T00:26:42.530Z,1.40
2023-02-06T00:29:11.250Z,6.50
2023-02-06T00:31:39.915Z,9.50
2023-02-06T00:34:08.536Z,7.40
2023-02-06T00:36:39.509Z,6.40
2023-02-06T00:39:09.615Z,7.00
2023-02-06T00:41:40.681Z,8.00
2023-02-06T00:44:09.847Z,10.80
2023-02-06T00:46:39.928Z,9.00
2023-02-06T00:49:09.094Z,8.60
2023-02-06T00:51:38.985Z,5.50
2023-02-06T00:54:08.508Z,7.30
2023-02-06T00:56:37.093Z,10.20
2023-02-06T00:59:05.699Z,2.70
2023-02-06T01:01:34.880Z,9.10
2023-02-06T01:04:05.573Z,8.20
2023-02-06T01:06:34.235Z,7.80
2023-02-06T01:09:03.084Z,8.00
2023-02-06T01:11:33.373Z,10.20
2023-02-06T01:14:02.349Z,9.40
2023-02-06T01:16:31.094Z,7.70
2023-02-06T01:18:59.691Z,9.20
2023-02-06T01:21:28.320Z,10.30
2023-02-06T01:23:59.638Z,8.20
2023-02-06T01:26:28.585Z,7.90
2023-02-06T01:28:59.658Z,10.20
2023-02-06T01:31:30.220Z,5.40
2023-02-06T01:34:00.744Z,8.40
2023-02-06T01:36:29.519Z,5.10
2023-02-06T01:38:58.549Z,8.40
2023-02-06T01:41:27.256Z,4.50
2023-02-06T01:44:17.789Z,11.00
2023-02-06T01:46:48.652Z,11.20
2023-02-06T01:49:27.790Z,6.70
2023-02-06T01:52:04.649Z,7.30
2023-02-06T01:54:33.442Z,7.70
2023-02-06T01:57:07.240Z,9.30
2023-02-06T01:59:37.149Z,6.30
2023-02-06T02:02:06.180Z,4.70
2023-02-06T02:04:38.755Z,4.50
2023-02-06T02:07:28.946Z,7.70
2023-02-06T02:09:57.449Z,6.00
2023-02-06T02:12:29.614Z,9.90
2023-02-06T02:14:59.288Z,7.60
2023-02-06T02:17:59.550Z,10.40
2023-02-06T02:20:43.253Z,9.20
2023-02-06T02:23:33.185Z,11.60
2023-02-06T02:26:33.693Z,7.50
2023-02-06T02:29:33.645Z,7.60
2023-02-06T02:32:46.901Z,8.60
2023-02-06T02:35:53.944Z,8.20
2023-02-06T02:38:41.660Z,10.80
2023-02-06T02:41:27.456Z,6.10
2023-02-06T02:44:04.805Z,5.10
2023-02-06T02:46:37.822Z,9.10
2023-02-06T02:49:15.839Z,11.90
2023-02-06T02:51:49.844Z,9.80
2023-02-06T02:54:18.659Z,11.40
2023-02-06T02:56:47.385Z,8.20
2023-02-06T02:59:50.704Z,6.70
2023-02-06T03:02:31.962Z,7.20
2023-02-06T03:05:06.042Z,8.50
2023-02-06T03:07:50.657Z,9.80
2023-02-06T03:10:41.148Z,8.10
2023-02-06T03:13:21.870Z,7.60
2023-02-06T03:16:23.037Z,8.60
2023-02-06T03:19:14.357Z,4.70
2023-02-06T03:21:45.262Z,9.80
2023-02-06T03:24:19.810Z,9.80
2023-02-06T03:26:51.270Z,10.40
2023-02-06T03:29:21.047Z,9.10
2023-02-06T03:31:54.506Z,7.70
2023-02-06T03:34:33.619Z,8.80
2023-02-06T03:37:02.317Z,8.10
2023-02-06T03:39:33.512Z,8.80
2023-02-06T03:42:04.928Z,10.00
2023-02-06T03:44:42.140Z,8.50
2023-02-06T03:47:12.654Z,8.70
2023-02-06T03:49:43.476Z,7.40
2023-02-06T03:52:18.442Z,10.90
2023-02-06T03:55:04.916Z,10.40
2023-02-06T03:57:35.911Z,10.30
2023-02-06T04:00:06.153Z,12.70
2023-02-06T04:02:46.264Z,7.40
2023-02-06T04:05:18.217Z,11.90
2023-02-06T04:07:49.390Z,7.60
2023-02-06T04:10:17.935Z,5.70
2023-02-06T04:12:46.534Z,9.50
2023-02-06T04:15:15.665Z,7.00
2023-02-06T04:17:58.812Z,8.20
2023-02-06T04:20:29.859Z,10.60
2023-02-06T04:22:59.607Z,9.00
2023-02-06T04:25:30.347Z,11.20
2023-02-06T04:27:59.342Z,8.20
2023-02-06T04:30:27.951Z,9.50
2023-02-06T04:32:56.593Z,11.00
2023-02-06T04:35:27.357Z,8.90
2023-02-06T04:37:58.563Z,5.70
2023-02-06T04:40:27.144Z,9.10
2023-02-06T04:42:55.724Z,9.20
2023-02-06T04:45:24.390Z,11.80
2023-02-06T04:47:53.209Z,5.60
2023-02-06T04:50:21.783Z,10.80
2023-02-06T04:52:50.673Z,9.30
2023-02-06T04:55:19.755Z,9.90
2023-02-06T04:57:48.427Z,9.20
2023-02-06T05:00:17.351Z,9.10
2023-02-06T05:02:48.790Z,7.50
2023-02-06T05:05:17.437Z,9.40
2023-02-06T05:07:45.963Z,5.40
2023-02-06T05:10:17.763Z,7.40
2023-02-06T05:12:47.516Z,10.30
2023-02-06T05:15:16.165Z,8.40
2023-02-06T05:17:46.974Z,12.60
2023-02-06T05:20:15.504Z,8.10
2023-02-06T05:22:44.096Z,10.70
2023-02-06T05:25:12.562Z,10.30
2023-02-06T05:27:41.791Z,8.40
2023-02-06T05:30:11.138Z,11.30
2023-02-06T05:32:39.931Z,7.20
2023-02-06T05:35:08.791Z,10.90
2023-02-06T05:37:40.759Z,10.20
2023-02-06T05:40:10.377Z,8.30
2023-02-06T05:42:40.348Z,11.20
2023-02-06T05:45:13.921Z,13.10
2023-02-06T05:47:42.470Z,13.60
2023-02-06T05:50:11.024Z,11.30
2023-02-06T05:52:40.034Z,11.00
2023-02-06T05:55:16.244Z,6.40
2023-02-06T05:57:47.800Z,9.70
2023-02-06T06:00:16.882Z,14.50
2023-02-06T06:02:46.973Z,14.30
2023-02-06T06:05:15.819Z,10.80
2023-02-06T06:07:44.380Z,10.00
2023-02-06T06:10:12.973Z,6.30
2023-02-06T06:12:45.089Z,15.50
2023-02-06T06:15:13.860Z,9.00
2023-02-06T06:17:42.530Z,11.00
2023-02-06T06:20:12.161Z,14.40
2023-02-06T06:22:40.794Z,10.60
2023-02-06T06:25:12.382Z,8.80
2023-02-06T06:27:43.670Z,8.80
2023-02-06T06:30:13.442Z,10.10
2023-02-06T06:32:42.088Z,15.80
2023-02-06T06:35:10.996Z,12.30
2023-02-06T06:37:39.683Z,13.20
2023-02-06T06:40:08.688Z,17.10
2023-02-06T06:42:37.258Z,11.10
2023-02-06T06:45:10.259Z,12.00
2023-02-06T06:47:41.926Z,18.60
2023-02-06T06:50:11.712Z,17.40
2023-02-06T06:52:40.177Z,12.90
2023-02-06T06:55:09.715Z,17.90
2023-02-06T06:57:38.235Z,12.70
2023-02-06T07:00:07.564Z,16.30
2023-02-06T07:02:36.292Z,16.00
2023-02-06T07:05:06.052Z,15.30
2023-02-06T07:07:34.984Z,21.10
2023-02-06T07:10:03.854Z,16.80
2023-02-06T07:12:32.560Z,13.10
2023-02-06T07:15:01.865Z,19.30
2023-02-06T07:17:30.519Z,11.60
2023-02-06T07:20:04.702Z,12.10
2023-02-06T07:22:33.328Z,17.90
2023-02-06T07:25:06.368Z,18.10
2023-02-06T07:27:35.150Z,18.00
2023-02-06T07:30:07.202Z,8.40
2023-02-06T07:32:37.243Z,10.50
2023-02-06T07:35:06.640Z,13.60
2023-02-06T07:37:35.677Z,12.80
2023-02-06T07:40:06.486Z,23.80
2023-02-06T07:42:37.449Z,18.30
2023-02-06T07:45:18.751Z,17.90
2023-02-06T07:47:47.285Z,9.20
2023-02-06T07:50:15.900Z,15.60
2023-02-06T07:52:45.263Z,12.60
2023-02-06T07:55:13.792Z,9.70
2023-02-06T07:57:42.851Z,14.30
2023-02-06T08:00:12.144Z,6.80
2023-02-06T08:02:40.655Z,17.20
2023-02-06T08:05:10.033Z,13.40
2023-02-06T08:07:38.524Z,18.10
2023-02-06T08:10:07.530Z,19.80
2023-02-06T08:12:38.854Z,16.00
2023-02-06T08:15:07.818Z,14.80
2023-02-06T08:17:36.428Z,7.00
2023-02-06T08:20:05.393Z,15.70
2023-02-06T08:22:38.819Z,17.70
2023-02-06T08:25:07.922Z,14.60
2023-02-06T08:27:36.394Z,12.60
2023-02-06T08:30:05.478Z,15.10
2023-02-06T08:32:37.309Z,12.30
2023-02-06T08:35:06.670Z,7.30
2023-02-06T08:37:35.152Z,21.30
2023-02-06T08:40:04.187Z,15.90
2023-02-06T08:42:36.518Z,18.00
2023-02-06T08:45:05.522Z,15.90
2023-02-06T08:47:36.245Z,14.00
2023-02-06T08:50:05.022Z,15.80
2023-02-06T08:52:33.726Z,16.70
2023-02-06T08:55:02.266Z,15.40
2023-02-06T08:57:30.831Z,15.10
2023-02-06T08:59:59.354Z,13.80
2023-02-06T09:02:30.910Z,16.10
2023-02-06T09:04:59.480Z,14.30
2023-02-06T09:07:27.993Z,12.70
2023-02-06T09:09:56.579Z,12.60
2023-02-06T09:12:25.107Z,14.20
2023-02-06T09:14:53.951Z,12.30
2023-02-06T09:17:22.467Z,15.90
2023-02-06T09:19:50.957Z,14.80
2023-02-06T09:22:19.574Z,16.50
2023-02-06T09:24:48.115Z,16.30
2023-02-06T09:27:16.800Z,16.30
2023-02-06T09:29:45.255Z,13.10
2023-02-06T09:32:13.844Z,13.90
2023-02-06T09:34:42.370Z,14.30
2023-02-06T09:37:10.976Z,12.40
2023-02-06T09:39:40.084Z,10.10
2023-02-06T09:42:17.634Z,9.90
2023-02-06T09:44:51.585Z,9.20
2023-02-06T09:47:29.201Z,10.10
2023-02-06T09:50:02.943Z,9.70
2023-02-06T09:52:34.385Z,13.50
2023-02-06T09:55:23.629Z,10.20
2023-02-06T09:57:59.024Z,11.50
2023-02-06T10:00:51.903Z,9.70
2023-02-06T10:03:39.750Z,10.10
2023-02-06T10:06:27.880Z,9.00
2023-02-06T10:09:05.536Z,9.60
2023-02-06T10:11:48.579Z,6.60
2023-02-06T10:17:23.521Z,7.10
2023-02-06T10:20:14.055Z,9.10
2023-02-06T10:23:03.578Z,9.30
2023-02-06T10:25:40.540Z,9.20
2023-02-06T10:28:27.380Z,10.10
2023-02-06T10:30:58.711Z,8.80
2023-02-06T10:33:41.347Z,9.00
2023-02-06T10:36:28.572Z,9.20
2023-02-06T10:39:06.166Z,9.00
2023-02-06T10:42:16.423Z,8.50
2023-02-06T10:45:19.682Z,7.70
2023-02-06T10:47:55.988Z,9.20
2023-02-06T10:50:30.567Z,8.20
2023-02-06T10:53:11.847Z,11.10
2023-02-06T10:55:56.281Z,11.90
2023-02-06T10:58:33.528Z,10.90
2023-02-06T11:01:13.910Z,8.80
2023-02-06T11:04:00.765Z,9.90
2023-02-06T11:06:30.581Z,8.60
2023-02-06T11:08:59.131Z,12.40
2023-02-06T11:11:35.050Z,9.00
2023-02-06T11:14:29.121Z,10.20
2023-02-06T11:17:01.543Z,12.00
2023-02-06T11:19:44.526Z,9.50
2023-02-06T11:22:28.333Z,9.20
2023-02-06T11:25:05.370Z,12.50
2023-02-06T11:27:36.251Z,9.60
2023-02-06T11:30:28.002Z,10.50
2023-02-06T11:33:05.975Z,11.60
2023-02-06T11:35:49.667Z,10.10
2023-02-06T11:38:21.282Z,11.70
2023-02-06T11:41:18.500Z,10.80
2023-02-06T11:43:54.190Z,14.50
2023-02-06T11:46:28.596Z,26.00
2023-02-06T11:48:58.690Z,26.00
2023-02-06T11:51:46.814Z,25.40
2023-02-06T11:54:35.604Z,11.50
2023-02-06T11:57:19.330Z,11.60
2023-02-06T11:59:57.250Z,19.40
2023-02-06T12:02:38.158Z,170.70
2023-02-06T12:05:17.570Z,186.10
2023-02-06T12:08:13.792Z,49.10
2023-02-06T12:10:54.432Z,12.60
2023-02-06T12:13:45.972Z,9.50
2023-02-06T12:16:19.157Z,8.70
2023-02-06T12:18:51.187Z,10.80
2023-02-06T12:21:51.585Z,10.60
2023-02-06T12:24:38.711Z,11.40
2023-02-06T12:27:17.639Z,9.00
2023-02-06T12:30:16.821Z,11.30
2023-02-06T12:32:51.030Z,9.00
2023-02-06T12:35:35.133Z,10.00
2023-02-06T12:38:13.759Z,12.60
2023-02-06T12:41:00.771Z,12.20
2023-02-06T12:43:33.650Z,11.40
2023-02-06T12:48:58.104Z,14.30
2023-02-06T12:51:36.376Z,10.60
2023-02-06T12:54:28.548Z,11.30
2023-02-06T12:57:24.026Z,10.30
2023-02-06T13:00:22.992Z,9.30
2023-02-06T13:03:04.395Z,13.10
2023-02-06T13:05:32.895Z,8.90
2023-02-06T13:08:13.551Z,12.00
2023-02-06T13:10:43.144Z,11.20
2023-02-06T13:13:28.646Z,9.80
2023-02-06T13:16:00.584Z,11.90
2023-02-06T13:18:41.626Z,10.70
2023-02-06T13:21:24.303Z,9.50
2023-02-06T13:24:02.081Z,11.30
2023-02-06T13:26:51.884Z,11.10
2023-02-06T13:29:33.775Z,12.80
2023-02-06T13:32:30.090Z,11.70
2023-02-06T13:35:23.942Z,11.50
2023-02-06T13:38:22.766Z,11.40
2023-02-06T13:41:28.385Z,11.00
2023-02-06T13:44:01.107Z,10.50
2023-02-06T13:47:02.477Z,11.00
2023-02-06T13:50:07.376Z,14.10
2023-02-06T13:53:03.994Z,11.40
2023-02-06T13:56:19.792Z,10.70
2023-02-06T13:58:52.396Z,10.00
2023-02-06T14:01:28.398Z,12.20
2023-02-06T14:03:58.829Z,13.80
2023-02-06T14:06:56.955Z,11.90
2023-02-06T14:09:51.295Z,11.30
2023-02-06T14:12:57.650Z,11.60
2023-02-06T14:15:48.212Z,10.20
2023-02-06T14:18:35.592Z,11.70
2023-02-06T14:21:09.955Z,11.40
2023-02-06T14:24:03.166Z,9.90
2023-02-06T14:26:42.806Z,10.70
2023-02-06T14:29:35.846Z,10.50
2023-02-06T14:32:26.318Z,12.40
2023-02-06T14:35:27.122Z,11.30
2023-02-06T14:38:41.282Z,11.10
2023-02-06T14:41:10.753Z,12.60
2023-02-06T14:43:43.225Z,12.70
2023-02-06T14:46:18.440Z,12.40
2023-02-06T14:48:58.737Z,13.40
2023-02-06T14:51:35.481Z,11.90
2023-02-06T14:54:07.644Z,13.50
2023-02-06T14:56:38.714Z,12.00
2023-02-06T14:59:13.265Z,13.40
2023-02-06T15:01:50.422Z,12.80
2023-02-06T15:04:26.406Z,14.60
2023-02-06T15:07:03.454Z,12.60
2023-02-06T15:09:38.079Z,15.90
2023-02-06T15:12:21.508Z,13.70
2023-02-06T15:14:52.856Z,13.70
2023-02-06T15:17:23.183Z,12.70
2023-02-06T15:19:51.696Z,14.70
2023-02-06T15:22:29.259Z,15.40
2023-02-06T15:25:10.290Z,16.70
2023-02-06T15:27:39.529Z,14.50
2023-02-06T15:30:25.434Z,20.20
2023-02-06T15:32:56.305Z,20.30
2023-02-06T15:35:29.048Z,20.00
2023-02-06T15:38:04.450Z,14.90
2023-02-06T15:40:37.940Z,18.80
2023-02-06T15:43:07.486Z,20.20
2023-02-06T15:45:39.273Z,20.50
2023-02-06T15:48:16.402Z,18.40
2023-02-06T15:51:02.751Z,18.70
2023-02-06T15:53:34.618Z,17.10
2023-02-06T15:56:06.717Z,22.20
2023-02-06T15:58:35.935Z,23.70
2023-02-06T16:01:13.499Z,22.50
2023-02-06T16:03:43.444Z,26.20
2023-02-06T16:06:17.681Z,25.40
2023-02-06T16:08:52.893Z,27.30
2023-02-06T16:11:40.486Z,17.90
2023-02-06T16:14:19.475Z,24.70
2023-02-06T16:17:17.466Z,27.90
2023-02-06T16:20:02.675Z,26.30
2023-02-06T16:22:38.651Z,26.20
2023-02-06T16:25:26.034Z,27.30
2023-02-06T16:27:55.246Z,27.40
2023-02-06T16:30:31.738Z,19.30
2023-02-06T16:33:37.684Z,18.60
2023-02-06T16:36:07.047Z,20.30
2023-02-06T16:38:35.546Z,23.30
2023-02-06T16:41:04.114Z,18.40
2023-02-06T16:43:32.679Z,24.20
2023-02-06T16:46:02.402Z,18.40
2023-02-06T16:48:30.971Z,22.90
2023-02-06T16:50:59.683Z,25.10
2023-02-06T16:53:29.272Z,25.00
2023-02-06T16:55:58.795Z,25.00
2023-02-06T16:59:15.222Z,23.60
2023-02-06T17:01:44.000Z,17.90
2023-02-06T17:04:12.561Z,24.30
2023-02-06T17:06:41.427Z,20.60
2023-02-06T17:09:14.239Z,23.00
2023-02-06T17:14:11.959Z,17.40
2023-02-06T17:16:40.480Z,20.40
2023-02-06T17:19:11.455Z,27.80
2023-02-06T17:21:39.988Z,23.60
2023-02-06T17:24:09.295Z,23.90
2023-02-06T17:26:38.193Z,21.90
2023-02-06T17:29:06.746Z,22.20
2023-02-06T17:31:35.379Z,31.80
2023-02-06T17:34:04.001Z,24.90
2023-02-06T17:36:39.756Z,22.20
2023-02-06T17:39:08.273Z,33.90
2023-02-06T17:41:37.162Z,33.10
2023-02-06T17:44:05.715Z,30.30
2023-02-06T17:46:34.442Z,26.60
2023-02-06T17:49:03.083Z,33.20
2023-02-06T17:51:32.419Z,28.90
2023-02-06T17:54:01.196Z,39.70
2023-02-06T17:56:29.696Z,30.90
2023-02-06T17:58:58.227Z,38.60
2023-02-06T18:01:27.547Z,32.80
2023-02-06T18:03:56.263Z,31.40
2023-02-06T18:06:24.752Z,30.70
2023-02-06T18:08:53.217Z,37.20
2023-02-06T18:11:22.298Z,42.90
2023-02-06T18:13:51.105Z,27.30
2023-02-06T18:16:23.628Z,41.70
2023-02-06T18:18:52.587Z,37.70
2023-02-06T18:21:22.042Z,41.40
2023-02-06T18:23:52.700Z,44.20
2023-02-06T18:26:22.230Z,38.00
2023-02-06T18:28:52.198Z,26.30
2023-02-06T18:31:23.591Z,23.90
2023-02-06T18:33:53.592Z,37.40
2023-02-06T18:36:22.750Z,38.90
2023-02-06T18:38:51.841Z,37.20
2023-02-06T18:41:39.647Z,31.90
2023-02-06T18:44:10.622Z,34.60
2023-02-06T18:46:39.781Z,31.00
2023-02-06T18:49:09.968Z,24.30
2023-02-06T18:51:38.825Z,22.50
2023-02-06T18:54:08.217Z,18.80
2023-02-06T18:56:38.229Z,19.90
2023-02-06T18:59:06.916Z,26.10
2023-02-06T19:01:35.714Z,22.30
2023-02-06T19:04:04.354Z,32.60
2023-02-06T19:06:36.649Z,22.10
2023-02-06T19:09:07.857Z,25.50
2023-02-06T19:11:37.920Z,21.30
2023-02-06T19:14:08.614Z,16.80
2023-02-06T19:16:41.109Z,28.60
2023-02-06T19:19:11.891Z,32.50
2023-02-06T19:21:41.056Z,29.30
2023-02-06T19:24:13.097Z,21.60
2023-02-06T19:26:42.533Z,20.30
2023-02-06T19:29:15.533Z,18.90
2023-02-06T19:31:44.277Z,22.80
2023-02-06T19:34:13.140Z,23.00
2023-02-06T19:36:42.398Z,31.60
2023-02-06T19:39:13.285Z,19.50
2023-02-06T19:41:41.861Z,28.50
2023-02-06T19:44:14.141Z,23.10
2023-02-06T19:46:42.981Z,19.60
2023-02-06T19:49:13.966Z,24.50
2023-02-06T19:51:44.914Z,19.50
2023-02-06T19:54:14.693Z,22.40
2023-02-06T19:56:46.289Z,24.70
2023-02-06T19:59:22.569Z,26.00
2023-02-06T20:01:56.841Z,22.80
2023-02-06T20:04:31.239Z,27.60
2023-02-06T20:07:00.062Z,21.20
2023-02-06T20:09:31.658Z,25.20
2023-02-06T20:12:00.625Z,26.20
2023-02-06T20:14:29.490Z,32.80
2023-02-06T20:16:58.321Z,20.70
2023-02-06T20:19:28.941Z,24.60
2023-02-06T20:22:00.177Z,26.20
2023-02-06T20:24:32.224Z,29.40
2023-02-06T20:27:04.490Z,32.70
2023-02-06T20:29:46.026Z,26.40
2023-02-06T20:32:19.571Z,25.00
2023-02-06T20:34:48.145Z,24.00
2023-02-06T20:37:17.970Z,30.60
2023-02-06T20:39:49.567Z,31.50
2023-02-06T20:42:19.551Z,28.40
2023-02-06T20:44:49.615Z,27.10
2023-02-06T20:47:18.246Z,30.70
2023-02-06T20:49:49.491Z,27.70
2023-02-06T20:52:19.416Z,31.70
2023-02-06T20:54:48.009Z,29.10
2023-02-06T20:57:16.670Z,29.20
2023-02-06T20:59:45.464Z,28.60
2023-02-06T21:02:14.181Z,23.50
2023-02-06T21:04:43.053Z,28.70
2023-02-06T21:07:11.892Z,29.50
2023-02-06T21:09:44.447Z,24.30
2023-02-06T21:12:13.538Z,23.40
2023-02-06T21:14:42.390Z,25.80
2023-02-06T21:17:11.392Z,21.40
2023-02-06T21:19:40.179Z,23.80
2023-02-06T21:22:09.174Z,36.60
2023-02-06T21:24:37.948Z,28.80
2023-02-06T21:27:06.628Z,20.90
2023-02-06T21:29:35.324Z,29.50
2023-02-06T21:32:13.671Z,20.60
2023-02-06T21:34:43.353Z,19.20
2023-02-06T21:37:12.249Z,28.70
2023-02-06T21:39:41.855Z,26.70
2023-02-06T21:42:11.695Z,23.90
2023-02-06T21:44:40.759Z,19.40
2023-02-06T21:47:10.342Z,24.30
2023-02-06T21:49:38.955Z,31.20
2023-02-06T21:52:07.848Z,28.20
2023-02-06T21:54:36.461Z,25.30
2023-02-06T21:57:14.863Z,23.80
2023-02-06T21:59:45.383Z,25.70
2023-02-06T22:02:23.479Z,26.90
2023-02-06T22:04:52.260Z,30.10
2023-02-06T22:07:20.957Z,24.90
2023-02-06T22:09:49.530Z,29.40
2023-02-06T22:12:18.111Z,14.70
2023-02-06T22:14:46.794Z,33.80
2023-02-06T22:17:15.505Z,21.50
2023-02-06T22:19:44.176Z,26.70
2023-02-06T22:22:12.866Z,24.80
2023-02-06T22:24:41.743Z,23.20
2023-02-06T22:27:11.790Z,27.20
2023-02-06T22:29:40.553Z,31.20
2023-02-06T22:32:09.260Z,24.50
2023-02-06T22:34:38.018Z,31.60
2023-02-06T22:37:06.765Z,27.40
2023-02-06T22:39:35.643Z,32.90
2023-02-06T22:42:04.489Z,23.90
2023-02-06T22:44:33.119Z,32.20
2023-02-06T22:47:01.859Z,31.50
2023-02-06T22:49:30.569Z,28.70
2023-02-06T22:51:59.340Z,26.90
2023-02-06T22:54:31.199Z,28.50
2023-02-06T22:57:01.410Z,15.60
2023-02-06T22:59:33.129Z,26.50
2023-02-06T23:02:07.527Z,30.50
2023-02-06T23:04:38.533Z,25.30
2023-02-06T23:07:07.726Z,23.40
2023-02-06T23:09:38.524Z,21.10
2023-02-06T23:12:11.662Z,24.40
2023-02-06T23:14:40.382Z,31.30
2023-02-06T23:17:10.704Z,25.50
2023-02-06T23:19:40.285Z,27.70
2023-02-06T23:22:10.917Z,20.50
2023-02-06T23:24:39.588Z,22.90
2023-02-06T23:27:10.630Z,24.60
2023-02-06T23:29:39.431Z,22.50
2023-02-06T23:32:08.212Z,19.00
2023-02-06T23:34:39.050Z,19.10
2023-02-06T23:37:07.846Z,22.90
2023-02-06T23:39:36.411Z,21.10
2023-02-06T23:42:09.705Z,22.30
2023-02-06T23:44:38.282Z,11.90
2023-02-06T23:47:12.856Z,14.10
2023-02-06T23:49:41.593Z,23.80
2023-02-06T23:52:10.284Z,19.30
2023-02-06T23:54:38.981Z,21.50
2023-02-06T23:57:07.861Z,20.60
2023-02-06T23:59:36.354Z,13.70
